Time;durP1;ratioP1;P1;durP2;ratioP2;P2;SDS_P1;SDS_P2;PMS_P1;PMS_P2;Temp;Humidity;BMP_temperature;BMP_pressure;BME280_temperature;BME280_humidity;BME280_pressure;Samples;Min_cycle;Max_cycle;Signal;HPM_P1;HPM_P2
2022/05/03 00:03:16;;;;;;;10.57;6.07;;;5.90;99.90;;;;;;21197454;27;20092;-52
2022/05/03 00:13:27;;;;;;;8.07;5.60;;;6.10;99.90;;;;;;21212040;28;20039;-52
2022/05/03 00:23:31;;;;;;;8.43;5.00;;;6.50;99.90;;;;;;21211722;28;20432;-52
2022/05/03 00:33:34;;;;;;;6.70;4.63;;;6.50;99.90;;;;;;21150689;28;20097;-50
2022/05/03 00:43:48;;;;;;;7.72;4.88;;;6.00;99.90;;;;;;21143203;28;20104;-57
2022/05/03 00:54:19;;;;;;;7.45;4.45;;;5.60;99.90;;;;;;21142562;28;20073;-52
2022/05/03 01:04:32;;;;;;;8.03;4.20;;;5.40;99.90;;;;;;21141256;28;20557;-51
2022/05/03 01:15:06;;;;;;;7.15;5.00;;;5.30;99.90;;;;;;21140471;28;20035;-57
2022/05/03 01:25:25;;;;;;;8.15;4.72;;;5.10;99.90;;;;;;21122921;28;20032;-52
2022/05/03 01:35:40;;;;;;;6.88;4.50;;;5.10;99.90;;;;;;21139006;28;20040;-50
2022/05/03 01:46:10;;;;;;;6.32;4.65;;;5.00;99.90;;;;;;21137335;28;20043;-49
2022/05/03 01:56:29;;;;;;;7.27;3.77;;;5.00;99.90;;;;;;21137496;28;21277;-50
2022/05/03 02:07:07;;;;;;;6.43;4.75;;;5.00;99.90;;;;;;21137754;28;20094;-51
2022/05/03 02:17:46;;;;;;;7.38;4.50;;;4.80;99.90;;;;;;21137019;28;20075;-54
2022/05/03 02:28:00;;;;;;;6.22;4.70;;;4.70;99.90;;;;;;21118034;28;20032;-57
2022/05/03 02:38:07;;;;;;;8.10;4.57;;;4.90;99.90;;;;;;21134161;28;20096;-55
2022/05/03 02:48:18;;;;;;;6.97;4.80;;;4.90;99.90;;;;;;21065523;28;20044;-55
2022/05/03 02:58:39;;;;;;;;;;;4.70;99.90;;;;;;21066444;28;20040;-52
2022/05/03 03:08:45;;;;;;;8.10;5.30;;;5.00;99.90;;;;;;21064065;28;20236;-48
2022/05/03 03:18:48;;;;;;;7.20;5.28;;;5.40;99.90;;;;;;21063359;28;20032;-57
2022/05/03 03:28:54;;;;;;;6.90;4.85;;;5.60;99.90;;;;;;21062635;28;20431;-51
2022/05/03 03:38:56;;;;;;;8.25;5.03;;;5.60;99.90;;;;;;21062147;28;20135;-51
2022/05/03 03:48:59;;;;;;;5.65;4.30;;;5.60;99.90;;;;;;21208324;27;20449;-58
2022/05/03 03:59:06;;;;;;;6.57;4.63;;;5.70;99.90;;;;;;21051835;28;20508;-56
2022/05/03 04:09:09;;;;;;;5.50;4.47;;;5.30;99.90;;;;;;21033836;28;20176;-52
2022/05/03 04:19:13;;;;;;;8.05;5.13;;;5.30;99.90;;;;;;21034283;28;20101;-58
2022/05/03 04:29:15;;;;;;;8.23;4.95;;;5.30;99.90;;;;;;20990255;28;20110;-52
2022/05/03 04:39:18;;;;;;;8.20;4.78;;;5.10;99.90;;;;;;21042310;28;20096;-57
2022/05/03 04:49:20;;;;;;;9.35;5.75;;;5.00;99.90;;;;;;21058603;28;20101;-49
2022/05/03 04:59:24;;;;;;;9.15;5.40;;;5.00;99.90;;;;;;21058711;28;20036;-51
2022/05/03 05:09:26;;;;;;;10.00;5.10;;;5.10;99.90;;;;;;21062145;28;20040;-58
2022/05/03 05:19:29;;;;;;;7.15;5.10;;;5.20;99.90;;;;;;21058362;28;20036;-53
2022/05/03 05:29:33;;;;;;;8.32;4.85;;;5.40;99.90;;;;;;21071912;28;20073;-52
2022/05/03 05:39:36;;;;;;;7.03;4.93;;;5.60;99.90;;;;;;21109727;28;20058;-57
2022/05/03 05:49:38;;;;;;;10.95;5.13;;;5.80;99.90;;;;;;21138230;28;20036;-52
2022/05/03 05:59:41;;;;;;;6.43;4.60;;;6.00;99.90;;;;;;21136811;28;20481;-58
2022/05/03 06:09:43;;;;;;;8.07;4.20;;;6.50;99.90;;;;;;21135957;28;20093;-58
2022/05/03 06:19:46;;;;;;;6.57;3.83;;;7.20;99.90;;;;;;21135964;28;20031;-53
2022/05/03 06:29:49;;;;;;;3.92;2.92;;;7.90;99.90;;;;;;21103002;28;20103;-50
2022/05/03 06:39:52;;;;;;;3.40;2.17;;;12.10;99.90;;;;;;21066012;28;20057;-54
2022/05/03 06:49:55;;;;;;;2.85;2.10;;;15.60;99.90;;;;;;21065877;28;20188;-56
2022/05/03 07:00:02;;;;;;;1.88;1.70;;;17.70;99.90;;;;;;21064865;28;20097;-57
2022/05/03 07:10:06;;;;;;;6.53;2.33;;;18.20;96.70;;;;;;21128461;28;20031;-57
2022/05/03 07:30:31;;;;;;;2.97;2.05;;;18.70;93.50;;;;;;21129468;28;20031;-62
2022/05/03 07:40:33;;;;;;;3.38;2.78;;;18.60;94.10;;;;;;21091293;28;20111;-58
2022/05/03 07:50:36;;;;;;;2.95;2.65;;;18.80;93.40;;;;;;21127842;28;20552;-57
2022/05/03 08:00:39;;;;;;;3.63;2.10;;;18.80;91.30;;;;;;21127768;28;20043;-56
2022/05/03 08:10:42;;;;;;;2.10;1.95;;;19.10;94.20;;;;;;21205053;28;20491;-58
2022/05/03 08:20:45;;;;;;;3.13;2.30;;;20.10;92.40;;;;;;21152746;28;20447;-58
2022/05/03 08:30:48;;;;;;;4.22;2.28;;;20.60;92.00;;;;;;21144349;28;20035;-64
2022/05/03 08:51:18;;;;;;;3.58;2.55;;;21.00;91.20;;;;;;21181773;28;20035;-58
2022/05/03 09:01:21;;;;;;;4.10;2.88;;;20.90;91.70;;;;;;21212469;27;20058;-64
2022/05/03 09:11:23;;;;;;;4.32;2.65;;;21.30;90.90;;;;;;21145395;28;20039;-56
2022/05/03 09:31:51;;;;;;;3.47;2.90;;;19.40;91.30;;;;;;21224295;27;20174;-61
2022/05/03 09:42:10;;;;;;;4.10;2.83;;;17.30;93.30;;;;;;21164475;27;20051;-62
2022/05/03 09:52:28;;;;;;;3.72;3.08;;;16.40;96.00;;;;;;21137761;28;20036;-62
2022/05/03 10:02:32;;;;;;;4.63;3.03;;;16.40;96.40;;;;;;21168123;27;20031;-63
2022/05/03 10:12:36;;;;;;;3.53;3.20;;;16.40;99.90;;;;;;21220079;27;20043;-53
2022/05/03 10:22:40;;;;;;;5.85;3.38;;;17.40;97.50;;;;;;21220215;27;20039;-61
2022/05/03 10:32:43;;;;;;;4.97;3.78;;;16.10;95.70;;;;;;21163251;27;20031;-60
2022/05/03 10:43:09;;;;;;;7.03;4.03;;;14.90;96.10;;;;;;21175625;27;20457;-52
2022/05/03 10:53:15;;;;;;;5.43;4.18;;;13.90;98.40;;;;;;21218163;27;20039;-60
2022/05/03 11:03:21;;;;;;;7.45;5.03;;;14.10;99.70;;;;;;21208841;27;20027;-63
2022/05/03 11:13:40;;;;;;;5.40;3.63;;;15.00;99.90;;;;;;21131390;28;20084;-63
2022/05/03 11:23:54;;;;;;;5.53;3.60;;;17.20;98.70;;;;;;21130745;28;20043;-64
2022/05/03 11:33:59;;;;;;;2.83;2.30;;;18.00;96.40;;;;;;21130038;28;20047;-55
2022/05/03 11:44:01;;;;;;;3.92;2.35;;;17.80;92.20;;;;;;21198182;27;20512;-55
2022/05/03 12:05:18;;;;;;;3.67;3.10;;;18.60;95.40;;;;;;21137237;28;20104;-63
2022/05/03 12:15:24;;;;;;;3.92;3.28;;;18.30;94.90;;;;;;21127201;28;20093;-62
2022/05/03 12:25:27;;;;;;;5.13;3.13;;;17.50;96.70;;;;;;21126950;28;20035;-64
2022/05/03 12:35:33;;;;;;;4.28;2.78;;;17.60;95.10;;;;;;21214739;27;20057;-62
2022/05/03 12:45:36;;;;;;;3.58;3.22;;;17.40;94.00;;;;;;21227979;27;20055;-62
2022/05/03 12:55:38;;;;;;;4.70;3.35;;;17.00;93.00;;;;;;21227315;27;20039;-51
2022/05/03 13:05:41;;;;;;;5.80;2.58;;;16.80;94.70;;;;;;21198361;27;20035;-54
2022/05/03 13:15:43;;;;;;;9.85;3.22;;;16.90;94.70;;;;;;21140736;28;20085;-62
2022/05/03 13:25:46;;;;;;;4.20;3.42;;;17.00;94.00;;;;;;21141601;28;20039;-62
2022/05/03 13:46:10;;;;;;;4.18;3.53;;;16.70;94.00;;;;;;21216158;27;20099;-62
2022/05/03 13:56:16;;;;;;;4.28;3.25;;;16.80;95.50;;;;;;21222561;27;20039;-63
2022/05/03 14:06:19;;;;;;;5.40;4.00;;;16.70;96.20;;;;;;21221517;27;20574;-61
2022/05/03 14:16:22;;;;;;;4.90;4.40;;;15.90;93.60;;;;;;21220891;27;20035;-61
2022/05/03 14:26:25;;;;;;;9.48;5.93;;;14.50;97.10;;;;;;21217641;27;20031;-60
2022/05/03 14:36:33;;;;;;;8.25;6.57;;;13.50;99.90;;;;;;21205293;27;20100;-59
2022/05/03 14:46:35;;;;;;;12.32;8.13;;;12.00;99.90;;;;;;21208039;27;20051;-48
2022/05/03 15:06:59;;;;;;;9.73;7.50;;;10.40;99.90;;;;;;21177901;27;20035;-55
2022/05/03 15:17:01;;;;;;;8.57;6.18;;;10.40;99.90;;;;;;21131550;28;20040;-58
2022/05/03 15:27:10;;;;;;;7.72;5.28;;;11.10;99.90;;;;;;21202689;27;20173;-59
2022/05/03 15:37:13;;;;;;;4.88;3.58;;;11.70;99.90;;;;;;21195092;27;20048;-59
2022/05/03 15:47:18;;;;;;;3.05;1.90;;;12.30;99.90;;;;;;21140890;27;20047;-59
2022/05/03 15:57:22;;;;;;;3.90;2.53;;;13.10;99.90;;;;;;21213678;27;20063;-60
2022/05/03 16:07:26;;;;;;;3.08;2.20;;;13.10;99.90;;;;;;21195410;27;20038;-59
2022/05/03 16:17:29;;;;;;;2.92;1.90;;;13.20;99.90;;;;;;21212583;28;20445;-59
2022/05/03 16:27:32;;;;;;;3.72;2.22;;;13.00;99.90;;;;;;21199705;28;20069;-59
2022/05/03 16:48:13;;;;;;;4.03;2.60;;;11.80;99.90;;;;;;20867207;28;20116;-59
2022/05/03 16:58:16;;;;;;;3.33;2.88;;;11.40;99.90;;;;;;20866789;28;20070;-60
2022/05/03 17:08:19;;;;;;;6.20;4.18;;;11.00;99.90;;;;;;20865642;28;20673;-59
2022/05/03 17:18:22;;;;;;;8.88;5.47;;;10.50;99.90;;;;;;21002809;28;20101;-51
2022/05/03 17:28:24;;;;;;;10.02;6.15;;;10.40;99.90;;;;;;21140257;28;20027;-51
2022/05/03 17:38:28;;;;;;;11.02;7.72;;;10.30;99.90;;;;;;21100920;28;20447;-59
2022/05/03 17:48:30;;;;;;;9.60;6.97;;;10.10;99.90;;;;;;21210877;27;20124;-52
2022/05/03 17:58:34;;;;;;;10.88;8.15;;;9.80;99.90;;;;;;21222206;27;20473;-53
2022/05/03 18:08:37;;;;;;;17.17;9.77;;;9.40;99.90;;;;;;21222092;27;20035;-59
2022/05/03 18:18:45;;;;;;;13.48;9.93;;;9.10;99.90;;;;;;21221436;27;20437;-59
2022/05/03 18:28:49;;;;;;;15.77;9.65;;;8.80;99.90;;;;;;21196483;27;20104;-59
2022/05/03 18:38:52;;;;;;;18.90;9.25;;;8.60;99.90;;;;;;21134528;28;20036;-53
2022/05/03 18:48:56;;;;;;;12.38;8.85;;;8.40;99.90;;;;;;21133229;28;20313;-59
2022/05/03 18:59:01;;;;;;;15.88;8.80;;;8.30;99.90;;;;;;21132144;28;20053;-50
2022/05/03 19:09:04;;;;;;;16.45;9.45;;;8.20;99.90;;;;;;21204266;27;20112;-59
2022/05/03 19:19:08;;;;;;;12.68;9.10;;;8.30;99.90;;;;;;21140056;28;20553;-58
2022/05/03 19:39:34;;;;;;;13.70;9.48;;;7.90;99.90;;;;;;21166721;27;20558;-57
2022/05/03 19:49:38;;;;;;;16.23;10.07;;;7.60;99.90;;;;;;21145419;28;20055;-58
2022/05/03 19:59:42;;;;;;;16.40;11.55;;;7.50;99.90;;;;;;21144697;28;20112;-50
2022/05/03 20:09:45;;;;;;;16.13;10.50;;;7.20;99.90;;;;;;21143776;28;20027;-48
2022/05/03 20:19:48;;;;;;;13.95;9.85;;;7.30;99.90;;;;;;21110099;28;20048;-52
2022/05/03 20:29:51;;;;;;;15.50;10.45;;;7.30;99.90;;;;;;21143612;28;20088;-58
2022/05/03 20:39:55;;;;;;;16.65;10.05;;;7.20;99.90;;;;;;21124121;28;20380;-52
2022/05/03 20:49:57;;;;;;;15.18;10.07;;;7.20;99.90;;;;;;21043628;28;20032;-51
2022/05/03 21:00:06;;;;;;;12.82;8.55;;;7.30;99.90;;;;;;21057611;28;20040;-58
2022/05/03 21:10:09;;;;;;;12.77;8.45;;;7.30;99.90;;;;;;21057165;28;20070;-57
2022/05/03 21:20:11;;;;;;;12.45;8.80;;;7.20;99.90;;;;;;21056490;28;20093;-58
2022/05/03 21:30:14;;;;;;;15.52;9.05;;;7.00;99.90;;;;;;21056837;28;20032;-57
2022/05/03 21:40:16;;;;;;;12.20;8.65;;;6.80;99.90;;;;;;21060102;28;20047;-52
2022/05/03 21:50:19;;;;;;;14.23;8.93;;;6.60;99.90;;;;;;21138402;28;20497;-57
2022/05/03 22:00:24;;;;;;;13.05;9.20;;;6.50;99.90;;;;;;21137202;28;20069;-52
2022/05/03 22:10:44;;;;;;;13.50;8.40;;;6.30;99.90;;;;;;20976603;28;20068;-57
2022/05/03 22:20:47;;;;;;;13.00;9.40;;;6.10;99.90;;;;;;20959788;28;20048;-49
2022/05/03 22:30:49;;;;;;;16.83;8.70;;;6.20;99.90;;;;;;20958203;28;20044;-52
2022/05/03 22:40:52;;;;;;;13.27;7.70;;;6.20;99.90;;;;;;20957245;28;20609;-52
2022/05/03 22:50:56;;;;;;;11.55;8.07;;;6.10;99.90;;;;;;20956488;28;20086;-52
2022/05/03 23:01:00;;;;;;;13.43;8.35;;;6.10;99.90;;;;;;20955932;28;20052;-51
2022/05/03 23:11:02;;;;;;;12.68;9.50;;;6.10;99.90;;;;;;20955296;28;20041;-51
2022/05/03 23:21:05;;;;;;;16.77;10.30;;;6.10;99.90;;;;;;20954288;28;20060;-50
2022/05/03 23:31:07;;;;;;;15.07;9.60;;;6.10;99.90;;;;;;20936975;28;20093;-51
2022/05/03 23:41:10;;;;;;;15.18;9.60;;;6.10;99.90;;;;;;20952854;28;20083;-52
2022/05/03 23:51:13;;;;;;;12.93;9.68;;;6.20;99.90;;;;;;20952641;28;20506;-51
